sensor_id;sensor_type;location;lat;lon;timestamp;temperature;humidity
81140;SHT31;70624;51.978;5.656;2023-11-18T00:01:20;9.0;73.3
81140;SHT31;70624;51.978;5.656;2023-11-18T00:03:48;9.0;73.2
81140;SHT31;70624;51.978;5.656;2023-11-18T00:06:17;9.0;73.2
81140;SHT31;70624;51.978;5.656;2023-11-18T00:08:45;9.0;73.1
81140;SHT31;70624;51.978;5.656;2023-11-18T00:11:13;9.0;73.1
81140;SHT31;70624;51.978;5.656;2023-11-18T00:13:42;8.9;73.2
81140;SHT31;70624;51.978;5.656;2023-11-18T00:16:11;8.9;73.5
81140;SHT31;70624;51.978;5.656;2023-11-18T00:18:42;8.9;73.2
81140;SHT31;70624;51.978;5.656;2023-11-18T00:21:12;8.9;73.1
81140;SHT31;70624;51.978;5.656;2023-11-18T00:23:41;8.9;73.4
81140;SHT31;70624;51.978;5.656;2023-11-18T00:26:11;8.9;73.2
81140;SHT31;70624;51.978;5.656;2023-11-18T00:28:40;8.8;73.6
81140;SHT31;70624;51.978;5.656;2023-11-18T00:31:11;8.8;73.6
81140;SHT31;70624;51.978;5.656;2023-11-18T00:33:39;8.8;73.7
81140;SHT31;70624;51.978;5.656;2023-11-18T00:36:08;8.8;73.9
81140;SHT31;70624;51.978;5.656;2023-11-18T00:38:37;8.8;74.0
81140;SHT31;70624;51.978;5.656;2023-11-18T00:41:06;8.8;73.8
81140;SHT31;70624;51.978;5.656;2023-11-18T00:43:35;8.7;74.1
81140;SHT31;70624;51.978;5.656;2023-11-18T00:46:03;8.7;73.8
81140;SHT31;70624;51.978;5.656;2023-11-18T00:48:32;8.7;74.0
81140;SHT31;70624;51.978;5.656;2023-11-18T00:51:00;8.6;74.1
81140;SHT31;70624;51.978;5.656;2023-11-18T00:53:28;8.6;74.2
81140;SHT31;70624;51.978;5.656;2023-11-18T00:55:57;8.6;74.3
81140;SHT31;70624;51.978;5.656;2023-11-18T00:58:25;8.5;74.2
81140;SHT31;70624;51.978;5.656;2023-11-18T01:00:55;8.5;74.4
81140;SHT31;70624;51.978;5.656;2023-11-18T01:03:23;8.5;74.2
81140;SHT31;70624;51.978;5.656;2023-11-18T01:05:52;8.4;74.1
81140;SHT31;70624;51.978;5.656;2023-11-18T01:08:20;8.4;74.1
81140;SHT31;70624;51.978;5.656;2023-11-18T01:10:49;8.4;74.0
81140;SHT31;70624;51.978;5.656;2023-11-18T01:13:17;8.4;73.8
81140;SHT31;70624;51.978;5.656;2023-11-18T01:15:46;8.3;73.9
81140;SHT31;70624;51.978;5.656;2023-11-18T01:18:14;8.3;74.0
81140;SHT31;70624;51.978;5.656;2023-11-18T01:20:43;8.3;73.5
81140;SHT31;70624;51.978;5.656;2023-11-18T01:23:13;8.3;73.7
81140;SHT31;70624;51.978;5.656;2023-11-18T01:25:41;8.3;74.0
81140;SHT31;70624;51.978;5.656;2023-11-18T01:28:10;8.2;74.2
81140;SHT31;70624;51.978;5.656;2023-11-18T01:30:41;8.2;74.1
81140;SHT31;70624;51.978;5.656;2023-11-18T01:33:11;8.2;74.4
81140;SHT31;70624;51.978;5.656;2023-11-18T01:35:41;8.2;74.9
81140;SHT31;70624;51.978;5.656;2023-11-18T01:38:10;8.2;75.0
81140;SHT31;70624;51.978;5.656;2023-11-18T01:40:39;8.2;75.6
81140;SHT31;70624;51.978;5.656;2023-11-18T01:43:11;8.2;75.8
81140;SHT31;70624;51.978;5.656;2023-11-18T01:45:41;8.2;76.2
81140;SHT31;70624;51.978;5.656;2023-11-18T01:48:10;8.3;76.1
81140;SHT31;70624;51.978;5.656;2023-11-18T01:50:41;8.4;75.8
81140;SHT31;70624;51.978;5.656;2023-11-18T01:53:11;8.4;75.6
81140;SHT31;70624;51.978;5.656;2023-11-18T01:55:41;8.5;75.4
81140;SHT31;70624;51.978;5.656;2023-11-18T01:58:12;8.6;75.0
81140;SHT31;70624;51.978;5.656;2023-11-18T02:00:47;8.7;74.7
81140;SHT31;70624;51.978;5.656;2023-11-18T02:03:15;8.7;74.1
81140;SHT31;70624;51.978;5.656;2023-11-18T02:05:44;8.8;73.6
81140;SHT31;70624;51.978;5.656;2023-11-18T02:08:13;8.8;73.5
81140;SHT31;70624;51.978;5.656;2023-11-18T02:10:47;8.8;73.3
81140;SHT31;70624;51.978;5.656;2023-11-18T02:13:22;8.8;73.4
81140;SHT31;70624;51.978;5.656;2023-11-18T02:15:56;8.7;73.3
81140;SHT31;70624;51.978;5.656;2023-11-18T02:18:28;8.7;73.5
81140;SHT31;70624;51.978;5.656;2023-11-18T02:20:59;8.7;73.8
81140;SHT31;70624;51.978;5.656;2023-11-18T02:23:28;8.6;74.0
81140;SHT31;70624;51.978;5.656;2023-11-18T02:25:57;8.6;74.1
81140;SHT31;70624;51.978;5.656;2023-11-18T02:28:29;8.6;74.2
81140;SHT31;70624;51.978;5.656;2023-11-18T02:31:03;8.6;74.3
81140;SHT31;70624;51.978;5.656;2023-11-18T02:33:41;8.5;74.4
81140;SHT31;70624;51.978;5.656;2023-11-18T02:36:23;8.5;74.6
81140;SHT31;70624;51.978;5.656;2023-11-18T02:38:54;8.5;74.7
81140;SHT31;70624;51.978;5.656;2023-11-18T02:41:25;8.5;74.8
81140;SHT31;70624;51.978;5.656;2023-11-18T02:43:56;8.5;74.7
81140;SHT31;70624;51.978;5.656;2023-11-18T02:46:28;8.5;74.7
81140;SHT31;70624;51.978;5.656;2023-11-18T02:48:57;8.5;74.8
81140;SHT31;70624;51.978;5.656;2023-11-18T02:51:25;8.5;74.7
81140;SHT31;70624;51.978;5.656;2023-11-18T02:53:54;8.5;74.7
81140;SHT31;70624;51.978;5.656;2023-11-18T02:56:22;8.5;74.7
81140;SHT31;70624;51.978;5.656;2023-11-18T02:58:51;8.5;74.7
81140;SHT31;70624;51.978;5.656;2023-11-18T03:01:19;8.5;74.8
81140;SHT31;70624;51.978;5.656;2023-11-18T03:03:48;8.5;74.7
81140;SHT31;70624;51.978;5.656;2023-11-18T03:06:16;8.5;74.8
81140;SHT31;70624;51.978;5.656;2023-11-18T03:08:44;8.5;74.8
81140;SHT31;70624;51.978;5.656;2023-11-18T03:11:13;8.5;74.9
81140;SHT31;70624;51.978;5.656;2023-11-18T03:13:43;8.5;74.9
81140;SHT31;70624;51.978;5.656;2023-11-18T03:16:12;8.4;75.0
81140;SHT31;70624;51.978;5.656;2023-11-18T03:18:41;8.4;75.0
81140;SHT31;70624;51.978;5.656;2023-11-18T03:21:13;8.4;75.1
81140;SHT31;70624;51.978;5.656;2023-11-18T03:23:42;8.4;75.2
81140;SHT31;70624;51.978;5.656;2023-11-18T03:26:11;8.4;75.1
81140;SHT31;70624;51.978;5.656;2023-11-18T03:28:40;8.4;75.1
81140;SHT31;70624;51.978;5.656;2023-11-18T03:31:10;8.4;75.1
81140;SHT31;70624;51.978;5.656;2023-11-18T03:33:40;8.4;75.1
81140;SHT31;70624;51.978;5.656;2023-11-18T03:36:09;8.4;75.4
81140;SHT31;70624;51.978;5.656;2023-11-18T03:38:39;8.4;75.3
81140;SHT31;70624;51.978;5.656;2023-11-18T03:41:08;8.4;75.5
81140;SHT31;70624;51.978;5.656;2023-11-18T03:43:38;8.4;75.6
81140;SHT31;70624;51.978;5.656;2023-11-18T03:46:07;8.4;75.7
81140;SHT31;70624;51.978;5.656;2023-11-18T03:48:37;8.4;75.8
81140;SHT31;70624;51.978;5.656;2023-11-18T03:51:05;8.4;75.9
81140;SHT31;70624;51.978;5.656;2023-11-18T03:53:34;8.4;75.9
81140;SHT31;70624;51.978;5.656;2023-11-18T03:56:03;8.4;75.9
81140;SHT31;70624;51.978;5.656;2023-11-18T03:58:31;8.4;76.0
81140;SHT31;70624;51.978;5.656;2023-11-18T04:01:00;8.3;76.1
81140;SHT31;70624;51.978;5.656;2023-11-18T04:03:29;8.3;76.2
81140;SHT31;70624;51.978;5.656;2023-11-18T04:05:58;8.3;76.3
81140;SHT31;70624;51.978;5.656;2023-11-18T04:08:26;8.3;76.2
81140;SHT31;70624;51.978;5.656;2023-11-18T04:10:54;8.3;76.3
81140;SHT31;70624;51.978;5.656;2023-11-18T04:13:24;8.2;76.4
81140;SHT31;70624;51.978;5.656;2023-11-18T04:15:53;8.2;76.7
81140;SHT31;70624;51.978;5.656;2023-11-18T04:18:21;8.1;76.9
81140;SHT31;70624;51.978;5.656;2023-11-18T04:20:50;8.1;77.2
81140;SHT31;70624;51.978;5.656;2023-11-18T04:23:19;8.1;77.4
81140;SHT31;70624;51.978;5.656;2023-11-18T04:25:48;8.1;77.4
81140;SHT31;70624;51.978;5.656;2023-11-18T04:28:16;8.0;77.7
81140;SHT31;70624;51.978;5.656;2023-11-18T04:30:46;8.0;77.7
81140;SHT31;70624;51.978;5.656;2023-11-18T04:33:14;8.0;77.9
81140;SHT31;70624;51.978;5.656;2023-11-18T04:35:45;8.0;78.0
81140;SHT31;70624;51.978;5.656;2023-11-18T04:38:14;8.0;78.1
81140;SHT31;70624;51.978;5.656;2023-11-18T04:40:42;8.1;78.0
81140;SHT31;70624;51.978;5.656;2023-11-18T04:43:12;8.1;77.9
81140;SHT31;70624;51.978;5.656;2023-11-18T04:45:42;8.1;78.0
81140;SHT31;70624;51.978;5.656;2023-11-18T04:48:12;8.1;77.9
81140;SHT31;70624;51.978;5.656;2023-11-18T04:50:41;8.1;77.9
81140;SHT31;70624;51.978;5.656;2023-11-18T04:53:10;8.1;77.7
81140;SHT31;70624;51.978;5.656;2023-11-18T04:55:39;8.2;77.7
81140;SHT31;70624;51.978;5.656;2023-11-18T04:58:07;8.2;77.8
81140;SHT31;70624;51.978;5.656;2023-11-18T05:00:36;8.2;77.7
81140;SHT31;70624;51.978;5.656;2023-11-18T05:03:05;8.2;77.7
81140;SHT31;70624;51.978;5.656;2023-11-18T05:05:36;8.2;77.8
81140;SHT31;70624;51.978;5.656;2023-11-18T05:08:06;8.2;77.7
81140;SHT31;70624;51.978;5.656;2023-11-18T05:10:36;8.2;77.8
81140;SHT31;70624;51.978;5.656;2023-11-18T05:13:06;8.2;77.7
81140;SHT31;70624;51.978;5.656;2023-11-18T05:15:36;8.2;77.7
81140;SHT31;70624;51.978;5.656;2023-11-18T05:18:06;8.2;77.6
81140;SHT31;70624;51.978;5.656;2023-11-18T05:20:37;8.3;77.6
81140;SHT31;70624;51.978;5.656;2023-11-18T05:23:06;8.3;77.6
81140;SHT31;70624;51.978;5.656;2023-11-18T05:25:36;8.3;77.4
81140;SHT31;70624;51.978;5.656;2023-11-18T05:28:05;8.3;77.2
81140;SHT31;70624;51.978;5.656;2023-11-18T05:30:35;8.4;77.2
81140;SHT31;70624;51.978;5.656;2023-11-18T05:33:04;8.4;77.0
81140;SHT31;70624;51.978;5.656;2023-11-18T05:35:33;8.4;77.0
81140;SHT31;70624;51.978;5.656;2023-11-18T05:38:02;8.4;76.8
81140;SHT31;70624;51.978;5.656;2023-11-18T05:40:32;8.4;77.0
81140;SHT31;70624;51.978;5.656;2023-11-18T05:43:05;8.4;77.2
81140;SHT31;70624;51.978;5.656;2023-11-18T05:45:38;8.4;77.2
81140;SHT31;70624;51.978;5.656;2023-11-18T05:48:11;8.4;77.0
81140;SHT31;70624;51.978;5.656;2023-11-18T05:50:41;8.4;77.0
81140;SHT31;70624;51.978;5.656;2023-11-18T05:53:12;8.4;77.0
81140;SHT31;70624;51.978;5.656;2023-11-18T05:55:40;8.4;77.0
81140;SHT31;70624;51.978;5.656;2023-11-18T05:58:08;8.4;76.9
81140;SHT31;70624;51.978;5.656;2023-11-18T06:00:37;8.5;76.8
81140;SHT31;70624;51.978;5.656;2023-11-18T06:03:05;8.5;76.8
81140;SHT31;70624;51.978;5.656;2023-11-18T06:05:34;8.5;76.8
81140;SHT31;70624;51.978;5.656;2023-11-18T06:08:03;8.5;76.7
81140;SHT31;70624;51.978;5.656;2023-11-18T06:10:31;8.5;76.6
81140;SHT31;70624;51.978;5.656;2023-11-18T06:13:00;8.5;76.4
81140;SHT31;70624;51.978;5.656;2023-11-18T06:15:30;8.5;76.3
81140;SHT31;70624;51.978;5.656;2023-11-18T06:17:59;8.5;76.3
81140;SHT31;70624;51.978;5.656;2023-11-18T06:20:29;8.5;76.2
81140;SHT31;70624;51.978;5.656;2023-11-18T06:22:58;8.5;76.1
81140;SHT31;70624;51.978;5.656;2023-11-18T06:25:26;8.5;76.2
81140;SHT31;70624;51.978;5.656;2023-11-18T06:27:56;8.5;76.3
81140;SHT31;70624;51.978;5.656;2023-11-18T06:30:24;8.5;76.3
81140;SHT31;70624;51.978;5.656;2023-11-18T06:32:54;8.5;76.3
81140;SHT31;70624;51.978;5.656;2023-11-18T06:35:22;8.5;76.3
81140;SHT31;70624;51.978;5.656;2023-11-18T06:37:51;8.5;76.2
81140;SHT31;70624;51.978;5.656;2023-11-18T06:40:19;8.6;76.4
81140;SHT31;70624;51.978;5.656;2023-11-18T06:42:48;8.6;76.3
81140;SHT31;70624;51.978;5.656;2023-11-18T06:45:16;8.6;76.2
81140;SHT31;70624;51.978;5.656;2023-11-18T06:47:45;8.6;76.2
81140;SHT31;70624;51.978;5.656;2023-11-18T06:50:17;8.6;76.3
81140;SHT31;70624;51.978;5.656;2023-11-18T06:52:50;8.6;76.2
81140;SHT31;70624;51.978;5.656;2023-11-18T06:55:19;8.6;76.4
81140;SHT31;70624;51.978;5.656;2023-11-18T06:57:48;8.6;76.2
81140;SHT31;70624;51.978;5.656;2023-11-18T07:00:17;8.5;76.4
81140;SHT31;70624;51.978;5.656;2023-11-18T07:02:47;8.5;76.6
81140;SHT31;70624;51.978;5.656;2023-11-18T07:05:17;8.6;76.7
81140;SHT31;70624;51.978;5.656;2023-11-18T07:07:46;8.6;76.5
81140;SHT31;70624;51.978;5.656;2023-11-18T07:10:15;8.6;76.6
81140;SHT31;70624;51.978;5.656;2023-11-18T07:12:47;8.6;76.5
81140;SHT31;70624;51.978;5.656;2023-11-18T07:15:16;8.6;76.5
81140;SHT31;70624;51.978;5.656;2023-11-18T07:17:44;8.6;76.3
81140;SHT31;70624;51.978;5.656;2023-11-18T07:20:13;8.6;76.4
81140;SHT31;70624;51.978;5.656;2023-11-18T07:22:41;8.6;76.4
81140;SHT31;70624;51.978;5.656;2023-11-18T07:25:10;8.6;76.6
81140;SHT31;70624;51.978;5.656;2023-11-18T07:27:39;8.6;76.5
81140;SHT31;70624;51.978;5.656;2023-11-18T07:30:08;8.6;76.7
81140;SHT31;70624;51.978;5.656;2023-11-18T07:32:37;8.6;76.6
81140;SHT31;70624;51.978;5.656;2023-11-18T07:35:07;8.6;76.4
81140;SHT31;70624;51.978;5.656;2023-11-18T07:37:36;8.6;76.5
81140;SHT31;70624;51.978;5.656;2023-11-18T07:40:06;8.7;76.1
81140;SHT31;70624;51.978;5.656;2023-11-18T07:42:38;8.7;76.2
81140;SHT31;70624;51.978;5.656;2023-11-18T07:45:07;8.7;76.2
81140;SHT31;70624;51.978;5.656;2023-11-18T07:47:41;8.7;76.3
81140;SHT31;70624;51.978;5.656;2023-11-18T07:50:10;8.7;76.1
81140;SHT31;70624;51.978;5.656;2023-11-18T07:52:41;8.7;76.2
81140;SHT31;70624;51.978;5.656;2023-11-18T07:55:09;8.7;76.3
81140;SHT31;70624;51.978;5.656;2023-11-18T07:57:39;8.7;76.3
81140;SHT31;70624;51.978;5.656;2023-11-18T08:00:09;8.7;76.2
81140;SHT31;70624;51.978;5.656;2023-11-18T08:02:39;8.7;76.3
81140;SHT31;70624;51.978;5.656;2023-11-18T08:05:07;8.7;76.2
81140;SHT31;70624;51.978;5.656;2023-11-18T08:07:40;8.7;76.3
81140;SHT31;70624;51.978;5.656;2023-11-18T08:10:10;8.7;76.5
81140;SHT31;70624;51.978;5.656;2023-11-18T08:12:45;8.7;76.5
81140;SHT31;70624;51.978;5.656;2023-11-18T08:15:15;8.7;76.4
81140;SHT31;70624;51.978;5.656;2023-11-18T08:17:43;8.7;76.6
81140;SHT31;70624;51.978;5.656;2023-11-18T08:20:12;8.7;76.6
81140;SHT31;70624;51.978;5.656;2023-11-18T08:22:42;8.7;76.5
81140;SHT31;70624;51.978;5.656;2023-11-18T08:25:12;8.8;76.6
81140;SHT31;70624;51.978;5.656;2023-11-18T08:27:41;8.8;76.6
81140;SHT31;70624;51.978;5.656;2023-11-18T08:30:12;8.8;76.4
81140;SHT31;70624;51.978;5.656;2023-11-18T08:32:45;8.8;76.2
81140;SHT31;70624;51.978;5.656;2023-11-18T08:35:15;8.9;76.1
81140;SHT31;70624;51.978;5.656;2023-11-18T08:37:44;8.9;76.2
81140;SHT31;70624;51.978;5.656;2023-11-18T08:40:14;8.9;76.0
81140;SHT31;70624;51.978;5.656;2023-11-18T08:42:46;8.9;75.8
81140;SHT31;70624;51.978;5.656;2023-11-18T08:45:17;8.9;75.8
81140;SHT31;70624;51.978;5.656;2023-11-18T08:47:49;8.9;75.6
81140;SHT31;70624;51.978;5.656;2023-11-18T08:50:19;8.9;75.4
81140;SHT31;70624;51.978;5.656;2023-11-18T08:52:53;8.9;75.3
81140;SHT31;70624;51.978;5.656;2023-11-18T08:55:25;8.9;75.7
81140;SHT31;70624;51.978;5.656;2023-11-18T08:57:59;8.9;75.9
81140;SHT31;70624;51.978;5.656;2023-11-18T09:00:31;9.0;75.9
81140;SHT31;70624;51.978;5.656;2023-11-18T09:03:13;9.0;75.3
81140;SHT31;70624;51.978;5.656;2023-11-18T09:05:50;9.0;75.7
81140;SHT31;70624;51.978;5.656;2023-11-18T09:08:29;9.0;75.4
81140;SHT31;70624;51.978;5.656;2023-11-18T09:10:58;9.1;75.4
81140;SHT31;70624;51.978;5.656;2023-11-18T09:13:27;9.1;75.5
81140;SHT31;70624;51.978;5.656;2023-11-18T09:15:59;9.1;74.8
81140;SHT31;70624;51.978;5.656;2023-11-18T09:18:29;9.2;75.1
81140;SHT31;70624;51.978;5.656;2023-11-18T09:20:59;9.2;75.2
81140;SHT31;70624;51.978;5.656;2023-11-18T09:23:31;9.2;74.6
81140;SHT31;70624;51.978;5.656;2023-11-18T09:26:01;9.3;75.4
81140;SHT31;70624;51.978;5.656;2023-11-18T09:28:34;9.3;74.7
81140;SHT31;70624;51.978;5.656;2023-11-18T09:31:04;9.4;74.5
81140;SHT31;70624;51.978;5.656;2023-11-18T09:33:40;9.4;74.3
81140;SHT31;70624;51.978;5.656;2023-11-18T09:36:13;9.5;74.1
81140;SHT31;70624;51.978;5.656;2023-11-18T09:38:45;9.5;74.3
81140;SHT31;70624;51.978;5.656;2023-11-18T09:41:16;9.5;73.5
81140;SHT31;70624;51.978;5.656;2023-11-18T09:43:46;9.6;73.6
81140;SHT31;70624;51.978;5.656;2023-11-18T09:46:23;9.6;73.6
81140;SHT31;70624;51.978;5.656;2023-11-18T09:49:10;9.6;73.9
81140;SHT31;70624;51.978;5.656;2023-11-18T09:51:42;9.7;73.2
81140;SHT31;70624;51.978;5.656;2023-11-18T09:54:19;9.7;73.5
81140;SHT31;70624;51.978;5.656;2023-11-18T09:57:13;9.8;73.7
81140;SHT31;70624;51.978;5.656;2023-11-18T09:59:52;9.9;73.5
81140;SHT31;70624;51.978;5.656;2023-11-18T10:02:25;9.9;72.9
81140;SHT31;70624;51.978;5.656;2023-11-18T10:04:54;10.0;72.6
81140;SHT31;70624;51.978;5.656;2023-11-18T10:07:27;10.0;72.8
81140;SHT31;70624;51.978;5.656;2023-11-18T10:09:58;10.0;73.0
81140;SHT31;70624;51.978;5.656;2023-11-18T10:12:28;10.0;73.5
81140;SHT31;70624;51.978;5.656;2023-11-18T10:14:56;9.9;74.0
81140;SHT31;70624;51.978;5.656;2023-11-18T10:17:26;9.9;74.2
81140;SHT31;70624;51.978;5.656;2023-11-18T10:19:56;9.9;74.7
81140;SHT31;70624;51.978;5.656;2023-11-18T10:22:27;9.9;74.5
81140;SHT31;70624;51.978;5.656;2023-11-18T10:24:58;9.9;75.0
81140;SHT31;70624;51.978;5.656;2023-11-18T10:27:28;9.8;75.3
81140;SHT31;70624;51.978;5.656;2023-11-18T10:30:02;9.8;75.2
81140;SHT31;70624;51.978;5.656;2023-11-18T10:32:37;9.8;75.6
81140;SHT31;70624;51.978;5.656;2023-11-18T10:35:06;9.8;75.7
81140;SHT31;70624;51.978;5.656;2023-11-18T10:37:37;9.8;76.1
81140;SHT31;70624;51.978;5.656;2023-11-18T10:40:10;9.8;76.0
81140;SHT31;70624;51.978;5.656;2023-11-18T10:42:41;9.8;76.3
81140;SHT31;70624;51.978;5.656;2023-11-18T10:45:24;9.8;76.2
81140;SHT31;70624;51.978;5.656;2023-11-18T10:47:54;9.8;76.3
81140;SHT31;70624;51.978;5.656;2023-11-18T10:50:24;9.8;76.1
81140;SHT31;70624;51.978;5.656;2023-11-18T10:52:58;9.8;76.1
81140;SHT31;70624;51.978;5.656;2023-11-18T10:55:34;9.8;76.1
81140;SHT31;70624;51.978;5.656;2023-11-18T10:58:03;9.8;76.4
81140;SHT31;70624;51.978;5.656;2023-11-18T11:00:47;9.7;76.6
81140;SHT31;70624;51.978;5.656;2023-11-18T11:03:18;9.7;76.9
81140;SHT31;70624;51.978;5.656;2023-11-18T11:05:50;9.7;77.1
81140;SHT31;70624;51.978;5.656;2023-11-18T11:08:21;9.7;76.9
81140;SHT31;70624;51.978;5.656;2023-11-18T11:10:54;9.7;77.2
81140;SHT31;70624;51.978;5.656;2023-11-18T11:13:25;9.7;77.2
81140;SHT31;70624;51.978;5.656;2023-11-18T11:15:57;9.7;77.1
81140;SHT31;70624;51.978;5.656;2023-11-18T11:18:38;9.7;77.3
81140;SHT31;70624;51.978;5.656;2023-11-18T11:21:15;9.7;77.4
81140;SHT31;70624;51.978;5.656;2023-11-18T11:23:54;9.7;77.4
81140;SHT31;70624;51.978;5.656;2023-11-18T11:27:12;9.7;77.7
81140;SHT31;70624;51.978;5.656;2023-11-18T11:29:52;9.7;78.0
81140;SHT31;70624;51.978;5.656;2023-11-18T11:32:29;9.7;77.9
81140;SHT31;70624;51.978;5.656;2023-11-18T11:35:10;9.7;78.3
81140;SHT31;70624;51.978;5.656;2023-11-18T11:37:45;9.7;78.4
81140;SHT31;70624;51.978;5.656;2023-11-18T11:40:16;9.7;78.2
81140;SHT31;70624;51.978;5.656;2023-11-18T11:42:51;9.6;78.6
81140;SHT31;70624;51.978;5.656;2023-11-18T11:45:21;9.6;79.1
81140;SHT31;70624;51.978;5.656;2023-11-18T11:47:56;9.6;79.5
81140;SHT31;70624;51.978;5.656;2023-11-18T11:50:35;9.6;79.7
81140;SHT31;70624;51.978;5.656;2023-11-18T11:53:15;9.6;79.7
81140;SHT31;70624;51.978;5.656;2023-11-18T11:55:49;9.5;80.2
81140;SHT31;70624;51.978;5.656;2023-11-18T11:58:37;9.5;80.7
81140;SHT31;70624;51.978;5.656;2023-11-18T12:01:24;9.5;80.8
81140;SHT31;70624;51.978;5.656;2023-11-18T12:03:56;9.5;80.7
81140;SHT31;70624;51.978;5.656;2023-11-18T12:06:31;9.5;80.9
81140;SHT31;70624;51.978;5.656;2023-11-18T12:09:03;9.5;81.1
81140;SHT31;70624;51.978;5.656;2023-11-18T12:11:35;9.6;81.1
81140;SHT31;70624;51.978;5.656;2023-11-18T12:14:07;9.6;81.3
81140;SHT31;70624;51.978;5.656;2023-11-18T12:17:02;9.7;81.1
81140;SHT31;70624;51.978;5.656;2023-11-18T12:19:37;9.8;80.6
81140;SHT31;70624;51.978;5.656;2023-11-18T12:22:14;9.9;80.3
81140;SHT31;70624;51.978;5.656;2023-11-18T12:25:30;10.0;80.1
81140;SHT31;70624;51.978;5.656;2023-11-18T12:28:09;10.0;79.5
81140;SHT31;70624;51.978;5.656;2023-11-18T12:30:41;10.1;79.2
81140;SHT31;70624;51.978;5.656;2023-11-18T12:33:19;10.1;79.1
81140;SHT31;70624;51.978;5.656;2023-11-18T12:36:31;10.1;79.4
81140;SHT31;70624;51.978;5.656;2023-11-18T12:40:56;10.2;79.6
81140;SHT31;70624;51.978;5.656;2023-11-18T12:43:46;10.3;79.5
81140;SHT31;70624;51.978;5.656;2023-11-18T12:47:12;10.3;78.7
81140;SHT31;70624;51.978;5.656;2023-11-18T12:49:45;10.3;78.6
81140;SHT31;70624;51.978;5.656;2023-11-18T12:52:19;10.3;78.7
81140;SHT31;70624;51.978;5.656;2023-11-18T12:54:48;10.3;79.0
81140;SHT31;70624;51.978;5.656;2023-11-18T12:57:20;10.3;79.1
81140;SHT31;70624;51.978;5.656;2023-11-18T12:59:49;10.2;79.4
81140;SHT31;70624;51.978;5.656;2023-11-18T13:02:18;10.2;79.4
81140;SHT31;70624;51.978;5.656;2023-11-18T13:04:47;10.2;79.7
81140;SHT31;70624;51.978;5.656;2023-11-18T13:07:16;10.1;79.8
81140;SHT31;70624;51.978;5.656;2023-11-18T13:09:48;10.1;80.3
81140;SHT31;70624;51.978;5.656;2023-11-18T13:12:17;10.1;80.2
81140;SHT31;70624;51.978;5.656;2023-11-18T13:14:47;10.1;80.3
81140;SHT31;70624;51.978;5.656;2023-11-18T13:17:16;10.1;80.3
81140;SHT31;70624;51.978;5.656;2023-11-18T13:19:45;10.0;80.5
81140;SHT31;70624;51.978;5.656;2023-11-18T13:22:17;10.0;80.6
81140;SHT31;70624;51.978;5.656;2023-11-18T13:24:46;10.0;81.0
81140;SHT31;70624;51.978;5.656;2023-11-18T13:27:18;10.0;81.1
81140;SHT31;70624;51.978;5.656;2023-11-18T13:29:49;9.9;81.3
81140;SHT31;70624;51.978;5.656;2023-11-18T13:32:21;9.9;81.6
81140;SHT31;70624;51.978;5.656;2023-11-18T13:34:53;9.9;81.8
81140;SHT31;70624;51.978;5.656;2023-11-18T13:37:22;9.9;82.6
81140;SHT31;70624;51.978;5.656;2023-11-18T13:39:55;9.9;82.8
81140;SHT31;70624;51.978;5.656;2023-11-18T13:42:26;9.9;82.5
81140;SHT31;70624;51.978;5.656;2023-11-18T13:45:00;9.9;81.7
81140;SHT31;70624;51.978;5.656;2023-11-18T13:47:33;9.9;81.6
81140;SHT31;70624;51.978;5.656;2023-11-18T13:50:06;9.9;81.6
81140;SHT31;70624;51.978;5.656;2023-11-18T13:52:36;9.9;81.7
81140;SHT31;70624;51.978;5.656;2023-11-18T13:55:05;9.9;82.0
81140;SHT31;70624;51.978;5.656;2023-11-18T13:57:35;9.8;82.3
81140;SHT31;70624;51.978;5.656;2023-11-18T14:00:07;9.8;82.4
81140;SHT31;70624;51.978;5.656;2023-11-18T14:02:41;9.8;82.8
81140;SHT31;70624;51.978;5.656;2023-11-18T14:05:17;9.8;82.9
81140;SHT31;70624;51.978;5.656;2023-11-18T14:07:48;9.8;82.9
81140;SHT31;70624;51.978;5.656;2023-11-18T14:10:17;9.8;82.9
81140;SHT31;70624;51.978;5.656;2023-11-18T14:13:01;9.8;83.0
81140;SHT31;70624;51.978;5.656;2023-11-18T14:15:32;9.8;83.2
81140;SHT31;70624;51.978;5.656;2023-11-18T14:18:01;9.8;83.3
81140;SHT31;70624;51.978;5.656;2023-11-18T14:20:30;9.7;83.3
81140;SHT31;70624;51.978;5.656;2023-11-18T14:23:01;9.7;83.3
81140;SHT31;70624;51.978;5.656;2023-11-18T14:25:30;9.7;83.4
81140;SHT31;70624;51.978;5.656;2023-11-18T14:27:58;9.7;83.6
81140;SHT31;70624;51.978;5.656;2023-11-18T14:30:28;9.7;83.6
81140;SHT31;70624;51.978;5.656;2023-11-18T14:32:59;9.7;83.6
81140;SHT31;70624;51.978;5.656;2023-11-18T14:35:27;9.7;83.6
81140;SHT31;70624;51.978;5.656;2023-11-18T14:37:56;9.7;83.6
81140;SHT31;70624;51.978;5.656;2023-11-18T14:40:26;9.7;83.7
81140;SHT31;70624;51.978;5.656;2023-11-18T14:42:55;9.6;83.7
81140;SHT31;70624;51.978;5.656;2023-11-18T14:45:24;9.6;83.8
81140;SHT31;70624;51.978;5.656;2023-11-18T14:47:54;9.6;84.0
81140;SHT31;70624;51.978;5.656;2023-11-18T14:50:23;9.6;83.9
81140;SHT31;70624;51.978;5.656;2023-11-18T14:52:53;9.6;83.9
81140;SHT31;70624;51.978;5.656;2023-11-18T14:55:25;9.6;83.7
81140;SHT31;70624;51.978;5.656;2023-11-18T14:57:54;9.6;83.6
81140;SHT31;70624;51.978;5.656;2023-11-18T15:00:24;9.6;83.7
81140;SHT31;70624;51.978;5.656;2023-11-18T15:02:54;9.6;83.8
81140;SHT31;70624;51.978;5.656;2023-11-18T15:05:23;9.6;84.0
81140;SHT31;70624;51.978;5.656;2023-11-18T15:07:54;9.6;84.0
81140;SHT31;70624;51.978;5.656;2023-11-18T15:10:25;9.6;84.0
81140;SHT31;70624;51.978;5.656;2023-11-18T15:12:55;9.6;83.9
81140;SHT31;70624;51.978;5.656;2023-11-18T15:15:26;9.6;83.8
81140;SHT31;70624;51.978;5.656;2023-11-18T15:17:58;9.6;84.0
81140;SHT31;70624;51.978;5.656;2023-11-18T15:20:29;9.6;84.0
81140;SHT31;70624;51.978;5.656;2023-11-18T15:22:58;9.6;84.0
81140;SHT31;70624;51.978;5.656;2023-11-18T15:25:27;9.6;83.8
81140;SHT31;70624;51.978;5.656;2023-11-18T15:27:55;9.6;83.8
81140;SHT31;70624;51.978;5.656;2023-11-18T15:30:26;9.6;83.8
81140;SHT31;70624;51.978;5.656;2023-11-18T15:32:55;9.6;83.7
81140;SHT31;70624;51.978;5.656;2023-11-18T15:35:24;9.6;83.8
81140;SHT31;70624;51.978;5.656;2023-11-18T15:37:54;9.7;83.8
81140;SHT31;70624;51.978;5.656;2023-11-18T15:40:23;9.7;83.8
81140;SHT31;70624;51.978;5.656;2023-11-18T15:42:53;9.7;83.8
81140;SHT31;70624;51.978;5.656;2023-11-18T15:45:23;9.7;83.8
81140;SHT31;70624;51.978;5.656;2023-11-18T15:47:52;9.7;83.8
81140;SHT31;70624;51.978;5.656;2023-11-18T15:50:21;9.7;83.8
81140;SHT31;70624;51.978;5.656;2023-11-18T15:52:50;9.7;83.8
81140;SHT31;70624;51.978;5.656;2023-11-18T15:55:20;9.7;83.7
81140;SHT31;70624;51.978;5.656;2023-11-18T15:57:52;9.7;83.5
81140;SHT31;70624;51.978;5.656;2023-11-18T16:00:22;9.7;83.6
81140;SHT31;70624;51.978;5.656;2023-11-18T16:02:53;9.7;83.9
81140;SHT31;70624;51.978;5.656;2023-11-18T16:05:25;9.7;83.9
81140;SHT31;70624;51.978;5.656;2023-11-18T16:07:55;9.7;84.0
81140;SHT31;70624;51.978;5.656;2023-11-18T16:10:25;9.7;83.9
81140;SHT31;70624;51.978;5.656;2023-11-18T16:12:55;9.7;84.0
81140;SHT31;70624;51.978;5.656;2023-11-18T16:15:25;9.8;84.0
81140;SHT31;70624;51.978;5.656;2023-11-18T16:17:55;9.8;83.9
81140;SHT31;70624;51.978;5.656;2023-11-18T16:20:26;9.8;83.8
81140;SHT31;70624;51.978;5.656;2023-11-18T16:22:55;9.8;83.9
81140;SHT31;70624;51.978;5.656;2023-11-18T16:25:25;9.8;83.9
81140;SHT31;70624;51.978;5.656;2023-11-18T16:27:58;9.8;83.9
81140;SHT31;70624;51.978;5.656;2023-11-18T16:30:30;9.8;83.9
81140;SHT31;70624;51.978;5.656;2023-11-18T16:33:00;9.8;83.9
81140;SHT31;70624;51.978;5.656;2023-11-18T16:35:29;9.8;84.0
81140;SHT31;70624;51.978;5.656;2023-11-18T16:37:58;9.8;84.1
81140;SHT31;70624;51.978;5.656;2023-11-18T16:40:30;9.8;84.2
81140;SHT31;70624;51.978;5.656;2023-11-18T16:42:59;9.9;84.5
81140;SHT31;70624;51.978;5.656;2023-11-18T16:45:28;9.9;84.8